Houston, Texas
Traffic Map
Current Weather Conditions
Houston, Texas
Clear
Clear
54°
Feels Like: 54°
Wind Chill: 54° Ceiling: Unl
Heat Index: 54° Visibility: 10mi
Dew Point: 43° Wind: 7mph
Humidity: 67% Direction: 340° (NNW)
Pressure: 30.28in Gusts: 0mph
Raw Report DataKMCJ 011015Z AUTO 34006KT 10SM CLR 12/06 A3028 RMK AO1
Traffic Incident Summary
Active as of:
Severity:
Category:
InformationThere was an issue retrieving the traffic information for this location. Please try a different location or try again shortly.
Advertisements
Track Severe Weather on mobile